METAR stanice u blizini

 

LYBE - Beograd / Surčin, Srbija
Ažurirano: 23/11/2019 00:00
Vedro
Vedro
 Pravac vetra JI
Vetar: JI 33 km/h
Temperatura: 5°C
Osećaj hladnoće: 0°C
Tačka rose: 0°C
Vlažnost: 70%
Pritisak: 1018 hPa
Pregled: Vedro
Vidljivost: greater than 10 km
2019/11/22 23:00 LYBE 222300Z 14018KT CAVOK 05/M00 Q1018 NOSIG
LYBT - Beograd / Batajnica, Srbija
Ažurirano: 23/11/2019 00:00
Vedro
Vedro
 Pravac vetra I
Vetar: I 19 km/h
Temperatura: 4°C
Osećaj hladnoće: 0°C
Tačka rose: -1°C
Vlažnost: 70%
Pritisak: 1018 hPa
Pregled: Vedro
Vidljivost: greater than 10 km
2019/11/22 23:00 LYBT 222300Z 10010KT CAVOK 04/M01 Q1018 NOSIG
LYVR - Vršac, Srbija
Ažurirano: 23/11/2019 00:00
Vedro
Vedro
 Pravac vetra JI
Vetar: JI 56 km/h, Maks.: 93 km/h
Temperatura: 6°C
Osećaj hladnoće: 0°C
Tačka rose: -1°C
Vlažnost: 61%
Pritisak: 1018 hPa
Pregled: Vedro
Vidljivost: greater than 10 km
2019/11/22 23:00 LYVR 222300Z AUTO 14030G50KT CAVOK 06/M01 Q1018
 
LYKV - Lađevci, Srbija
Ažurirano: 23/11/2019 00:00
Mostly Cloudy
Mostly Cloudy
 Pravac vetra JJI
Vetar: JJI 17 km/h
Temperatura: 4°C
Osećaj hladnoće: 0°C
Tačka rose: 3°C
Vlažnost: 93%
Pritisak: 1020 hPa
Oblaci: Mostly Cloudy
Vidljivost: 10 km
Cloud details: Mostly Cloudy 610 m
2019/11/22 23:00 LYKV 222300Z 15009KT 9999 BKN020 04/03 Q1020 NOSIG
LYNI - Niš, Srbija
Ažurirano: 23/11/2019 00:00
Mostly Cloudy
Mostly Cloudy
 Pravac vetra varies
Vetar: varies 4 km/h
Temperatura: 5°C
Tačka rose: 1°C
Vlažnost: 76%
Pritisak: 1021 hPa
Oblaci: Mostly Cloudy
Vidljivost: 10 km
Cloud details: Mostly Cloudy 1311 m
2019/11/22 23:00 LYNI 222300Z VRB02KT 9999 BKN043 05/01 Q1021 NOSIG
BKPR - Priština, Srbija
Ažurirano: 23/11/2019 00:30
Mostly Cloudy
Mostly Cloudy
 Pravac vetra varies
Vetar: varies 6 km/h
Temperatura: 6°C
Tačka rose: 3°C
Vlažnost: 81%
Pritisak: 1018 hPa
Oblaci: Mostly Cloudy
Vidljivost: 10 km
Cloud details: Partly Cloudy 457 m
Mostly Cloudy 914 m
2019/11/22 23:30 BKPR 222330Z VRB03KT 9999 SCT015 BKN030 06/03 Q1018 NOSIG RMK 17010095
 
LHPP - Pecs / Pogany, Hungary
Ažurirano: 22/11/2019 18:15
NOT Current
Few Clouds
Few Clouds
 Pravac vetra I
Vetar: I 11 km/h
Temperatura: 8°C
Osećaj hladnoće: 6°C
Tačka rose: 6°C
Vlažnost: 87%
Pritisak: 1016 hPa
Oblaci: Few Clouds
Vidljivost: 10 km
Cloud details: Few Clouds 396 m
2019/11/22 17:15 LHPP 221715Z 10006KT 9999 FEW013 08/06 Q1016
LHUD - Szeged, Hungary
Ažurirano: 04/07/2019 01:45
NOT Current
Vedro
Vedro
 Pravac vetra S
Vetar: S 7 km/h
Temperatura: 18°C
Tačka rose: 13°C
Vlažnost: 73%
Pritisak: 1019 hPa
Pregled: Vedro
Vidljivost: greater than 10 km
2019/07/03 23:45 LHUD 032345Z 35004KT CAVOK 18/13 Q1019
LRTR - Timisoara, Romania
Ažurirano: 23/11/2019 00:00
Vedro
Vedro
 Pravac vetra IJI
Vetar: IJI 9 km/h
Temperatura: 4°C
Osećaj hladnoće: 2°C
Tačka rose: 1°C
Vlažnost: 81%
Pritisak: 1019 hPa
Pregled: Vedro
Vidljivost: greater than 10 km
2019/11/22 23:00 LRTR 222300Z 11005KT CAVOK 04/01 Q1019
 
LRCV - Craiova, Romania
Ažurirano: 23/11/2019 00:00
Light snow, Pretežno oblačno
Light snow, Pretežno oblačno
 Pravac vetra ISI
Vetar: ISI 22 km/h
Temperatura: 0°C
Osećaj hladnoće: -6°C
Tačka rose: 0°C
Vlažnost: 100%
Pritisak: 1025 hPa
Pregled: Light Snow
Oblaci: Mostly Cloudy
Vidljivost: 6 km
Cloud details: Few Clouds 152 m
Mostly Cloudy 305 m
2019/11/22 23:00 LRCV 222300Z 07012KT 6000 -SN FEW005 BKN010 00/M00 Q1025 R09/29//95
LBSF - Sofia, Bulgaria
Ažurirano: 23/11/2019 00:00
Oblačno
Oblačno
 Pravac vetra I
Vetar: I 19 km/h
Temperatura: 6°C
Osećaj hladnoće: 3°C
Tačka rose: 4°C
Vlažnost: 87%
Pritisak: 1020 hPa
Oblaci: Oblačno
Vidljivost: 10 km
Cloud details: Partly Cloudy 335 m
Oblačno 518 m
2019/11/22 23:00 LBSF 222300Z 10010KT 9999 SCT011 OVC017 06/04 Q1020 NOSIG
LWSK - Skoplje, Makedonija
Ažurirano: 23/11/2019 00:00
Mostly Cloudy
Mostly Cloudy
 Pravac vetra ISI
Vetar: ISI 7 km/h
Temperatura: 10°C
Osećaj hladnoće: 9°C
Tačka rose: 7°C
Vlažnost: 82%
Pritisak: 1019 hPa
Oblaci: Mostly Cloudy
Vidljivost: 10 km
Cloud details: Few Clouds 610 m
Mostly Cloudy 1524 m
2019/11/22 23:00 LWSK 222300Z 07004KT 9999 FEW020 BKN050 10/07 Q1019 NOSIG
 
LYPG - Podgorica, Crna Gora
Ažurirano: 23/11/2019 00:00
Vedro
Vedro
 Pravac vetra varies
Vetar: varies 4 km/h
Temperatura: 8°C
Tačka rose: 6°C
Vlažnost: 87%
Pritisak: 1017 hPa
Pregled: Vedro
Vidljivost: greater than 10 km
2019/11/22 23:00 LYPG 222300Z VRB02KT CAVOK 08/06 Q1017 NOSIG
LQSA - Sarajevo, Bosna i Hercegovina
Ažurirano: 23/11/2019 00:00
Partly Cloudy
Partly Cloudy
 Pravac vetra varies
Vetar: varies 2 km/h
Temperatura: 0°C
Tačka rose: 0°C
Vlažnost: 100%
Pritisak: 1016 hPa
Oblaci: Partly Cloudy
Vidljivost: 6 km
2019/11/22 23:00 LQSA 222300Z VRB01KT 6000 NSC 00/M00 Q1016
LDOS - Osijek, Hrvatksa
Ažurirano: 23/11/2019 00:00
Vedro
Vedro
 Pravac vetra ISI
Vetar: ISI 13 km/h
Temperatura: 2°C
Osećaj hladnoće: -1°C
Tačka rose: 1°C
Vlažnost: 93%
Pritisak: 1017 hPa
Pregled: Vedro
Vidljivost: greater than 10 km
2019/11/22 23:00 LDOS 222300Z 07007KT CAVOK 02/01 Q1017